Time;durP1;ratioP1;P1;durP2;ratioP2;P2;SDS_P1;SDS_P2;PMS_P1;PMS_P2;Temp;Humidity;BMP_temperature;BMP_pressure;BME280_temperature;BME280_humidity;BME280_pressure;Samples;Min_cycle;Max_cycle;Signal;HPM_P1;HPM_P2
2022/12/23 00:00:44;;;;;;;171.50;63.78;;;12.90;60.50;;;;;;5002235;28;20034;-87
2022/12/23 00:03:10;;;;;;;176.43;62.53;;;13.10;60.10;;;;;;5009735;28;20116;-87
2022/12/23 00:05:39;;;;;;;138.18;56.80;;;13.20;59.80;;;;;;5007681;28;20171;-87
2022/12/23 00:08:09;;;;;;;172.33;61.93;;;13.20;59.30;;;;;;5019448;28;20029;-87
2022/12/23 00:10:38;;;;;;;183.40;65.37;;;13.20;59.30;;;;;;5019846;28;20033;-92
2022/12/23 00:20:59;;;;;;;258.10;92.38;;;12.80;61.10;;;;;;5016767;23;20064;-89
2022/12/23 00:23:25;;;;;;;229.75;91.80;;;12.90;60.60;;;;;;4999267;28;20477;-88
2022/12/23 00:25:51;;;;;;;276.25;92.35;;;12.80;60.40;;;;;;4999281;28;20032;-87
2022/12/23 00:28:19;;;;;;;201.70;85.18;;;12.70;61.10;;;;;;4999353;28;20457;-87
2022/12/23 00:30:57;;;;;;;283.08;117.72;;;12.80;60.60;;;;;;4997470;28;20086;-87
2022/12/23 00:33:26;;;;;;;172.40;63.63;;;12.90;60.10;;;;;;5009564;28;20083;-87
2022/12/23 00:35:52;;;;;;;146.25;59.22;;;12.80;60.70;;;;;;4999591;28;20045;-87
2022/12/23 00:44:03;;;;;;;146.80;56.85;;;12.50;61.20;;;;;;5017456;28;20040;-86
2022/12/23 00:46:29;;;;;;;147.18;58.10;;;12.50;61.90;;;;;;4999620;28;20480;-86
2022/12/23 00:51:41;;;;;;;142.50;56.25;;;12.70;61.30;;;;;;5017082;28;20504;-86
2022/12/23 00:54:07;;;;;;;136.43;53.22;;;12.00;62.00;;;;;;4999402;28;20048;-92
2022/12/23 00:56:33;;;;;;;130.57;52.22;;;11.40;64.70;;;;;;4989925;28;20382;-88
2022/12/23 00:58:59;;;;;;;143.77;53.50;;;10.60;66.90;;;;;;4970153;28;20015;-86
2022/12/23 01:06:45;;;;;;;136.57;53.33;;;11.20;66.10;;;;;;5036073;28;20503;-87
2022/12/23 01:09:10;;;;;;;165.73;59.83;;;11.00;65.50;;;;;;5016998;28;20057;-88
2022/12/23 01:11:36;;;;;;;168.80;57.35;;;10.70;67.80;;;;;;5018625;28;20475;-87
2022/12/23 01:14:02;;;;;;;172.57;59.05;;;11.00;67.00;;;;;;5018379;28;20033;-87
2022/12/23 01:16:27;;;;;;;183.48;60.42;;;11.50;65.80;;;;;;5014739;28;20056;-88
2022/12/23 01:18:53;;;;;;;176.55;63.80;;;12.00;64.90;;;;;;5002813;28;20022;-89
2022/12/23 01:21:19;;;;;;;146.95;55.00;;;12.40;63.60;;;;;;5018216;28;20034;-88
2022/12/23 01:23:44;;;;;;;153.65;59.55;;;12.60;62.20;;;;;;5014465;28;20372;-87
2022/12/23 01:26:11;;;;;;;155.68;57.63;;;12.40;62.80;;;;;;4998754;28;20426;-87
2022/12/23 01:28:36;;;;;;;161.85;59.55;;;12.40;62.70;;;;;;5005959;28;20018;-86
2022/12/23 01:31:04;;;;;;;160.75;55.92;;;12.40;62.60;;;;;;5015971;28;20109;-88
2022/12/23 01:33:31;;;;;;;175.10;60.28;;;12.30;62.70;;;;;;5016459;28;20477;-89
2022/12/23 01:46:21;;;;;;;154.05;54.85;;;12.70;61.80;;;;;;5016005;28;20132;-93
2022/12/23 01:51:30;;;;;;;146.80;56.35;;;12.90;61.00;;;;;;5162183;22;20065;-87
2022/12/23 01:54:00;;;;;;;158.10;56.50;;;12.70;61.80;;;;;;5012755;28;20113;-88
2022/12/23 01:56:35;;;;;;;191.98;61.92;;;12.70;61.90;;;;;;4994699;28;20030;-89
2022/12/23 02:03:40;;;;;;;187.70;59.78;;;12.80;62.00;;;;;;4981442;28;20025;-86
2022/12/23 02:04:45;;;;;;;160.45;58.00;;;12.80;61.40;;;;;;5012406;28;20084;-85
2022/12/23 02:09:57;;;;;;;194.43;62.33;;;12.90;61.70;;;;;;5005416;28;20028;-87
2022/12/23 02:12:56;;;;;;;183.73;60.38;;;13.00;61.20;;;;;;4978341;28;20066;-86
2022/12/23 02:19:10;;;;;;;205.93;60.78;;;12.90;61.20;;;;;;5010978;28;20402;-87
2022/12/23 02:21:43;;;;;;;223.95;61.67;;;12.60;61.90;;;;;;4927016;29;20071;-86
2022/12/23 02:24:48;;;;;;;199.90;59.08;;;12.60;62.10;;;;;;4919339;29;20044;-86
2022/12/23 02:27:15;;;;;;;178.70;58.97;;;12.70;61.60;;;;;;4934955;29;20502;-91
2022/12/23 02:30:25;;;;;;;231.13;60.28;;;12.70;61.90;;;;;;4915512;29;20043;-86
2022/12/23 02:32:59;;;;;;;229.85;62.47;;;12.40;62.50;;;;;;4860248;29;20097;-86
2022/12/23 02:35:32;;;;;;;242.82;63.60;;;11.90;63.50;;;;;;4868430;29;20609;-85
2022/12/23 02:38:20;;;;;;;220.77;62.40;;;11.70;64.40;;;;;;4877938;29;20041;-91
2022/12/23 02:40:48;;;;;;;217.98;60.90;;;11.70;64.90;;;;;;4876247;29;20045;-93
2022/12/23 02:51:46;;;;;;;188.57;58.92;;;11.80;65.20;;;;;;5205872;23;20073;-88
2022/12/23 02:54:17;;;;;;;192.15;60.42;;;12.10;63.70;;;;;;5034390;28;20025;-88
2022/12/23 02:56:48;;;;;;;182.07;62.42;;;12.30;63.10;;;;;;5013180;28;20022;-88
2022/12/23 02:59:24;;;;;;;175.23;59.67;;;12.20;63.50;;;;;;5026219;28;20018;-87
2022/12/23 03:01:51;;;;;;;186.55;59.90;;;12.30;64.00;;;;;;5011843;28;20046;-86
2022/12/23 03:04:17;;;;;;;144.90;54.70;;;12.40;63.20;;;;;;4997158;28;20017;-86
2022/12/23 03:06:47;;;;;;;190.30;65.20;;;12.70;62.30;;;;;;4996938;28;20033;-87
2022/12/23 03:09:22;;;;;;;172.18;61.40;;;12.70;62.80;;;;;;4997316;28;20393;-87
2022/12/23 03:12:07;;;;;;;146.15;56.30;;;12.70;62.10;;;;;;5014286;28;20030;-90
2022/12/23 03:15:14;;;;;;;193.50;64.32;;;12.70;62.30;;;;;;5016924;28;20415;-86
2022/12/23 03:17:46;;;;;;;209.63;63.53;;;12.80;62.30;;;;;;4967475;28;20039;-87
2022/12/23 03:20:23;;;;;;;202.23;64.03;;;13.10;61.70;;;;;;4953895;29;20063;-89
2022/12/23 03:23:20;;;;;;;193.48;63.08;;;13.20;61.30;;;;;;4938079;29;20066;-87
2022/12/23 03:26:10;;;;;;;226.80;64.95;;;13.20;60.70;;;;;;4970022;28;20020;-88
2022/12/23 03:28:59;;;;;;;173.05;61.45;;;13.20;61.00;;;;;;4954043;29;20035;-87
2022/12/23 03:31:29;;;;;;;165.18;60.15;;;13.20;61.20;;;;;;4953886;29;20027;-86
2022/12/23 03:34:07;;;;;;;176.05;60.53;;;13.00;61.40;;;;;;4940494;28;20035;-85
2022/12/23 03:36:44;;;;;;;182.95;60.22;;;13.00;61.30;;;;;;4945312;28;20025;-85
2022/12/23 03:39:13;;;;;;;159.70;57.30;;;13.10;61.80;;;;;;4962715;28;20047;-86
2022/12/23 03:41:43;;;;;;;175.87;59.53;;;13.20;60.90;;;;;;4957947;29;20047;-91
2022/12/23 03:44:25;;;;;;;186.45;64.35;;;13.30;60.90;;;;;;4973338;28;20030;-85
2022/12/23 03:47:06;;;;;;;167.32;58.00;;;13.40;60.30;;;;;;4938412;28;20035;-86
2022/12/23 03:52:30;;;;;;;217.25;62.60;;;13.40;60.40;;;;;;5078129;23;20069;-86
2022/12/23 03:54:59;;;;;;;210.80;64.82;;;13.50;60.30;;;;;;4985025;28;20022;-86
2022/12/23 03:57:45;;;;;;;183.80;61.13;;;13.50;60.10;;;;;;4999921;28;20416;-86
2022/12/23 04:00:11;;;;;;;198.98;64.43;;;13.50;60.30;;;;;;5016506;28;20476;-85
2022/12/23 04:03:03;;;;;;;196.95;62.08;;;13.50;60.40;;;;;;5012547;28;20037;-87
2022/12/23 04:05:33;;;;;;;150.20;54.63;;;13.60;59.80;;;;;;4980696;28;20037;-86
2022/12/23 04:08:09;;;;;;;;;;;13.50;60.00;;;;;;4996003;28;20061;-86
2022/12/23 04:10:34;;;;;;;177.60;59.75;;;13.30;60.70;;;;;;4995056;28;20276;-86
2022/12/23 04:13:00;;;;;;;213.60;67.53;;;13.40;60.70;;;;;;5006653;28;20098;-86
2022/12/23 04:15:27;;;;;;;205.80;65.43;;;13.40;60.60;;;;;;4999583;28;20037;-85
2022/12/23 04:17:55;;;;;;;172.45;62.03;;;13.20;60.50;;;;;;5001157;28;20026;-85
2022/12/23 04:20:21;;;;;;;170.75;60.10;;;12.60;61.90;;;;;;4979975;28;20078;-85
2022/12/23 04:22:46;;;;;;;191.52;63.08;;;12.60;62.50;;;;;;4980521;28;20049;-88
2022/12/23 04:25:14;;;;;;;176.50;60.53;;;12.60;62.80;;;;;;4980486;28;20042;-86
2022/12/23 04:27:40;;;;;;;164.38;58.50;;;12.90;61.90;;;;;;4980058;28;20026;-85
2022/12/23 04:30:08;;;;;;;161.23;60.03;;;13.00;61.80;;;;;;4989010;28;20022;-87
2022/12/23 04:32:33;;;;;;;139.60;55.08;;;13.00;62.10;;;;;;4980245;28;20058;-87
2022/12/23 04:34:59;;;;;;;152.68;58.10;;;13.10;61.60;;;;;;4993988;28;20058;-86
2022/12/23 04:37:25;;;;;;;163.23;58.22;;;13.10;61.50;;;;;;4999042;28;20025;-93
2022/12/23 04:39:51;;;;;;;163.68;58.40;;;13.10;61.20;;;;;;4986184;28;20018;-86
2022/12/23 04:42:16;;;;;;;164.27;59.28;;;12.90;61.40;;;;;;4999724;28;20042;-90
2022/12/23 04:44:42;;;;;;;163.00;59.03;;;13.00;61.40;;;;;;5015648;28;20022;-86
2022/12/23 04:47:07;;;;;;;141.90;54.35;;;13.00;61.40;;;;;;5006668;28;20034;-86
2022/12/23 04:49:33;;;;;;;143.32;51.90;;;13.10;61.00;;;;;;4979831;28;20038;-85
2022/12/23 04:51:59;;;;;;;146.32;54.67;;;13.10;60.80;;;;;;4996949;28;20070;-86
2022/12/23 04:54:25;;;;;;;154.80;56.30;;;13.10;60.60;;;;;;4979732;28;20041;-86
2022/12/23 04:56:50;;;;;;;127.93;50.03;;;13.20;60.80;;;;;;4979791;28;20027;-86
2022/12/23 04:59:16;;;;;;;128.63;50.53;;;13.30;60.60;;;;;;4976410;28;20073;-85
2022/12/23 05:01:42;;;;;;;120.57;48.63;;;13.30;60.30;;;;;;4989122;28;20085;-87
2022/12/23 05:04:08;;;;;;;137.63;51.35;;;13.10;60.80;;;;;;4978753;28;20026;-87
2022/12/23 05:06:34;;;;;;;131.43;50.30;;;13.00;61.00;;;;;;4975911;28;20023;-87
2022/12/23 05:09:00;;;;;;;148.77;54.80;;;13.00;60.80;;;;;;4979019;28;20121;-88
2022/12/23 05:11:26;;;;;;;131.45;49.92;;;13.10;61.10;;;;;;4978909;28;20033;-85
2022/12/23 05:13:52;;;;;;;136.00;51.17;;;13.10;61.10;;;;;;4984594;28;20374;-86
2022/12/23 05:16:17;;;;;;;137.82;50.65;;;12.70;62.00;;;;;;4977162;28;20107;-86
2022/12/23 05:18:43;;;;;;;129.55;49.35;;;12.60;62.50;;;;;;4969484;28;20098;-86
2022/12/23 05:21:09;;;;;;;149.55;52.25;;;12.50;62.50;;;;;;4975742;28;20039;-85
2022/12/23 05:23:34;;;;;;;202.50;57.95;;;12.50;62.80;;;;;;4975893;28;20390;-86
2022/12/23 05:26:00;;;;;;;163.02;57.47;;;12.60;62.60;;;;;;4970157;28;20031;-87
2022/12/23 05:28:26;;;;;;;165.60;56.47;;;13.00;61.70;;;;;;4988358;28;20023;-91
2022/12/23 05:31:03;;;;;;;144.07;52.83;;;13.20;61.10;;;;;;4996304;28;20029;-86
2022/12/23 05:33:29;;;;;;;155.77;52.33;;;13.10;61.60;;;;;;4996185;28;20469;-87
2022/12/23 05:35:56;;;;;;;119.18;47.65;;;13.20;61.20;;;;;;4975299;28;20093;-89
2022/12/23 05:38:22;;;;;;;127.88;50.78;;;13.30;60.50;;;;;;4978766;28;20030;-86
2022/12/23 05:40:48;;;;;;;121.00;47.55;;;13.10;61.00;;;;;;4978472;28;20061;-91
2022/12/23 05:43:14;;;;;;;116.88;47.78;;;13.00;61.30;;;;;;4977909;28;20023;-89
2022/12/23 05:45:40;;;;;;;115.38;46.70;;;12.60;62.00;;;;;;4978960;28;20112;-84
2022/12/23 05:48:06;;;;;;;167.50;54.55;;;12.30;62.70;;;;;;4978726;28;20022;-90
2022/12/23 05:50:32;;;;;;;184.43;57.47;;;12.20;64.00;;;;;;4979031;28;20489;-85
2022/12/23 05:52:57;;;;;;;159.23;61.53;;;12.40;63.40;;;;;;4978918;28;20092;-92
2022/12/23 05:55:24;;;;;;;222.02;69.22;;;12.70;62.80;;;;;;4979513;28;20030;-87
2022/12/23 05:57:51;;;;;;;137.18;55.85;;;13.00;62.00;;;;;;4979230;28;20051;-87
2022/12/23 06:00:17;;;;;;;168.65;63.22;;;13.20;61.10;;;;;;4974776;28;20027;-91
2022/12/23 06:02:43;;;;;;;217.00;70.43;;;12.90;61.50;;;;;;4959160;28;20082;-85
2022/12/23 06:05:09;;;;;;;236.38;60.65;;;12.80;62.40;;;;;;4976283;28;20023;-86
2022/12/23 06:07:36;;;;;;;234.88;63.70;;;13.00;61.70;;;;;;4987696;28;20034;-85
2022/12/23 06:10:07;;;;;;;149.13;51.22;;;13.20;61.40;;;;;;4978100;28;20034;-92
2022/12/23 06:23:07;;;;;;;206.70;59.75;;;13.50;60.60;;;;;;5172455;23;20045;-92
2022/12/23 06:25:33;;;;;;;268.83;61.25;;;13.50;60.50;;;;;;5017192;28;20025;-86
2022/12/23 06:27:59;;;;;;;188.70;55.47;;;13.50;60.30;;;;;;5017429;28;20101;-85
2022/12/23 06:30:25;;;;;;;218.00;55.78;;;13.60;60.50;;;;;;5017139;28;20464;-85
2022/12/23 06:32:50;;;;;;;167.27;51.60;;;13.50;60.80;;;;;;5017808;28;20397;-86
2022/12/23 06:35:16;;;;;;;297.63;62.47;;;13.30;61.60;;;;;;5014660;28;20025;-86
2022/12/23 06:37:42;;;;;;;291.73;67.68;;;13.00;62.20;;;;;;5016955;28;20033;-86
2022/12/23 06:40:08;;;;;;;234.63;56.20;;;13.00;62.60;;;;;;5016612;28;20028;-84
2022/12/23 06:42:34;;;;;;;263.95;63.97;;;13.10;62.30;;;;;;5033453;28;20036;-86
2022/12/23 06:44:59;;;;;;;142.77;48.70;;;13.10;62.30;;;;;;5014548;28;20022;-85
2022/12/23 06:47:25;;;;;;;233.80;57.47;;;13.20;62.50;;;;;;4988188;28;20470;-86
2022/12/23 06:49:51;;;;;;;282.27;58.15;;;13.30;62.50;;;;;;4983287;28;20026;-89
2022/12/23 06:52:18;;;;;;;185.20;52.10;;;13.40;62.20;;;;;;5005637;22;20151;-86
2022/12/23 06:54:44;;;;;;;238.65;55.55;;;13.10;62.20;;;;;;4676787;28;10001563;-88
2022/12/23 06:57:25;;;;;;;233.40;54.03;;;13.00;62.40;;;;;;5036116;28;20495;-92
2022/12/23 06:59:50;;;;;;;216.65;54.10;;;13.00;62.60;;;;;;5025902;28;20048;-90
2022/12/23 07:02:17;;;;;;;202.77;55.60;;;13.00;62.70;;;;;;5015446;28;20033;-86
2022/12/23 07:09:43;;;;;;;200.88;50.22;;;13.10;62.10;;;;;;4991424;28;20096;-92
2022/12/23 07:30:15;;;;;;;303.73;100.65;;;12.70;64.10;;;;;;4842165;29;20049;-85
2022/12/23 07:32:41;;;;;;;213.55;63.00;;;12.70;63.40;;;;;;5002455;28;20042;-88
2022/12/23 07:35:07;;;;;;;249.93;75.40;;;12.30;65.20;;;;;;4973226;28;20026;-90
2022/12/23 07:37:32;;;;;;;281.90;71.43;;;12.30;64.60;;;;;;4976631;28;20022;-88
2022/12/23 07:39:58;;;;;;;251.93;59.13;;;12.60;65.30;;;;;;4973231;28;20027;-86
2022/12/23 07:42:24;;;;;;;371.90;67.80;;;12.80;63.70;;;;;;4973168;28;20031;-86
2022/12/23 07:44:49;;;;;;;190.93;51.45;;;12.90;63.80;;;;;;4974647;28;20023;-86
2022/12/23 07:47:15;;;;;;;235.85;54.55;;;13.00;63.40;;;;;;4968739;28;20041;-85
2022/12/23 07:49:44;;;;;;;163.02;51.70;;;13.00;63.80;;;;;;4976202;28;20362;-90
2022/12/23 07:52:10;;;;;;;166.88;54.95;;;12.80;63.50;;;;;;4972594;28;20027;-85
2022/12/23 07:54:38;;;;;;;159.95;48.78;;;12.70;64.00;;;;;;4966611;28;20504;-83
2022/12/23 07:57:04;;;;;;;158.20;48.67;;;12.50;64.00;;;;;;4974682;28;20049;-89
2022/12/23 07:59:30;;;;;;;158.15;47.92;;;12.00;66.40;;;;;;4967810;28;20378;-84
2022/12/23 08:01:55;;;;;;;153.60;46.10;;;11.80;66.20;;;;;;4974171;28;20041;-84
2022/12/23 08:04:21;;;;;;;296.77;64.55;;;11.50;67.40;;;;;;4972795;28;20031;-85
2022/12/23 08:06:47;;;;;;;241.93;63.72;;;11.40;68.00;;;;;;4970977;28;20429;-85
2022/12/23 08:09:13;;;;;;;195.32;58.25;;;11.30;68.40;;;;;;4975990;28;20022;-86
2022/12/23 08:11:38;;;;;;;172.23;50.63;;;11.60;68.10;;;;;;4975985;28;20031;-86
2022/12/23 08:14:04;;;;;;;207.80;58.42;;;11.90;67.20;;;;;;4975615;28;20393;-84
2022/12/23 08:16:30;;;;;;;189.35;53.05;;;12.10;66.30;;;;;;4974100;28;20124;-84
2022/12/23 08:18:55;;;;;;;265.80;62.42;;;12.30;65.80;;;;;;4972836;28;20041;-83
2022/12/23 08:21:21;;;;;;;238.73;69.38;;;12.30;65.70;;;;;;4979917;28;20035;-84
2022/12/23 08:23:47;;;;;;;193.25;56.85;;;12.30;65.30;;;;;;4980156;28;20521;-83
2022/12/23 08:26:14;;;;;;;218.50;62.13;;;12.20;66.20;;;;;;4971007;28;20080;-84
2022/12/23 08:28:41;;;;;;;216.18;59.70;;;12.20;65.70;;;;;;4963566;28;20019;-85
2022/12/23 08:31:22;;;;;;;164.65;52.25;;;12.00;66.50;;;;;;4968477;28;20050;-84
2022/12/23 08:33:51;;;;;;;203.77;60.83;;;12.00;66.20;;;;;;4976367;28;20486;-86
2022/12/23 08:36:20;;;;;;;179.23;60.83;;;11.90;66.20;;;;;;4968473;28;20027;-92
2022/12/23 08:38:46;;;;;;;191.30;63.67;;;11.40;68.40;;;;;;4976313;28;20023;-86
2022/12/23 08:41:16;;;;;;;177.50;55.35;;;11.00;69.00;;;;;;4993832;28;20042;-84
2022/12/23 08:43:43;;;;;;;157.73;49.33;;;11.10;68.80;;;;;;4957213;28;20019;-86
2022/12/23 08:46:09;;;;;;;152.55;46.83;;;11.50;68.00;;;;;;4959877;28;20062;-86
2022/12/23 08:48:35;;;;;;;116.30;41.25;;;11.80;66.60;;;;;;4956952;28;20056;-86
2022/12/23 08:51:04;;;;;;;170.77;50.40;;;11.50;66.90;;;;;;4974809;28;20026;-91
2022/12/23 08:53:32;;;;;;;188.90;52.65;;;10.90;68.40;;;;;;4956520;28;20042;-87
2022/12/23 08:58:53;;;;;;;138.38;43.70;;;10.90;69.70;;;;;;4977158;28;20037;-81
2022/12/23 09:02:02;;;;;;;148.52;48.70;;;10.60;69.80;;;;;;4974742;28;20038;-89
2022/12/23 09:05:07;;;;;;;129.20;39.90;;;10.60;70.70;;;;;;4954247;28;20031;-91
2022/12/23 09:08:28;;;;;;;143.82;42.80;;;10.50;71.20;;;;;;4955766;29;20074;-90
2022/12/23 09:11:21;;;;;;;143.32;43.47;;;11.00;69.30;;;;;;4955484;29;20039;-89
2022/12/23 09:23:24;;;;;;;124.35;41.78;;;10.30;71.00;;;;;;4955812;29;20042;-90
2022/12/23 09:25:50;;;;;;;134.68;45.15;;;10.00;72.40;;;;;;4971565;28;20043;-88
2022/12/23 09:28:15;;;;;;;134.48;43.70;;;9.90;73.70;;;;;;4939820;29;20079;-90
2022/12/23 09:30:42;;;;;;;151.68;47.58;;;10.40;72.10;;;;;;4938633;29;20094;-89
2022/12/23 09:33:08;;;;;;;127.88;45.88;;;11.00;70.70;;;;;;4939596;29;20042;-89
2022/12/23 09:35:34;;;;;;;133.18;48.45;;;11.80;67.80;;;;;;4939508;29;20024;-90
2022/12/23 09:37:59;;;;;;;147.70;50.88;;;12.10;65.70;;;;;;4939334;29;20027;-89
2022/12/23 09:40:29;;;;;;;119.70;43.15;;;11.90;67.00;;;;;;4938982;29;20497;-88
2022/12/23 09:43:22;;;;;;;109.82;39.20;;;11.90;66.80;;;;;;4939246;29;20039;-89
2022/12/23 09:46:03;;;;;;;117.70;40.47;;;12.20;65.70;;;;;;4938985;29;20170;-90
2022/12/23 09:48:40;;;;;;;142.85;48.55;;;12.20;66.10;;;;;;4946965;29;20035;-89
2022/12/23 09:51:07;;;;;;;80.50;32.42;;;12.30;65.20;;;;;;4956018;29;20109;-88
2022/12/23 09:53:49;;;;;;;116.75;45.35;;;11.20;67.50;;;;;;4950222;29;20066;-89
2022/12/23 09:56:26;;;;;;;102.35;42.95;;;10.80;70.70;;;;;;4971764;28;20035;-89
2022/12/23 09:59:01;;;;;;;100.93;41.72;;;11.00;69.40;;;;;;4955782;28;20035;-89
2022/12/23 10:01:56;;;;;;;85.82;37.92;;;11.40;68.50;;;;;;4965300;28;20035;-89
2022/12/23 10:04:30;;;;;;;71.45;31.73;;;11.50;66.90;;;;;;4956001;29;20114;-90
2022/12/23 10:07:05;;;;;;;93.40;37.90;;;11.20;67.50;;;;;;4955694;28;20027;-88
2022/12/23 10:09:38;;;;;;;92.32;37.50;;;10.70;69.10;;;;;;4965724;28;20393;-89
2022/12/23 10:12:18;;;;;;;98.15;38.50;;;10.80;69.70;;;;;;4955520;29;20032;-88
2022/12/23 10:14:45;;;;;;;89.73;37.83;;;10.80;69.10;;;;;;4951371;29;20035;-90
2022/12/23 10:17:24;;;;;;;84.15;34.45;;;10.40;70.40;;;;;;4955285;29;20348;-90
2022/12/23 10:19:52;;;;;;;87.60;35.17;;;10.30;70.70;;;;;;4617701;28;10000560;-90
2022/12/23 10:22:21;;;;;;;100.22;35.53;;;10.50;70.50;;;;;;4957438;28;20053;-89
2022/12/23 10:24:48;;;;;;;137.20;41.33;;;10.60;70.60;;;;;;4958029;28;20133;-89
2022/12/23 10:27:38;;;;;;;132.27;39.33;;;10.60;70.60;;;;;;4958683;28;20034;-89
2022/12/23 10:30:13;;;;;;;89.93;36.42;;;11.10;69.40;;;;;;4958618;28;20031;-90
2022/12/23 10:32:59;;;;;;;109.70;38.35;;;11.30;68.20;;;;;;4977255;28;20060;-89
2022/12/23 10:35:56;;;;;;;112.65;38.53;;;11.30;68.20;;;;;;4977663;28;20157;-87
2022/12/23 10:38:45;;;;;;;83.40;34.28;;;11.30;67.90;;;;;;4977698;28;20034;-88
2022/12/23 10:41:28;;;;;;;91.13;37.08;;;11.00;67.50;;;;;;4977357;28;20038;-89
2022/12/23 10:44:19;;;;;;;104.00;38.25;;;10.90;69.50;;;;;;4977286;28;20126;-89
2022/12/23 10:46:44;;;;;;;;;;;11.20;69.50;;;;;;4977811;28;20026;-89
2022/12/23 10:49:24;;;;;;;108.70;39.40;;;11.40;67.80;;;;;;4977508;28;19910;-89
2022/12/23 10:52:02;;;;;;;100.80;38.22;;;11.60;67.30;;;;;;4977409;28;20468;-92
2022/12/23 10:54:35;;;;;;;112.95;38.85;;;11.90;66.80;;;;;;4977373;28;20026;-90
2022/12/23 10:57:03;;;;;;;107.57;34.85;;;12.20;65.90;;;;;;4977239;28;20060;-90
2022/12/23 10:59:33;;;;;;;100.65;34.70;;;12.50;64.90;;;;;;4977457;28;20026;-87
2022/12/23 11:02:11;;;;;;;109.45;37.08;;;12.80;64.00;;;;;;4977292;28;20042;-90
2022/12/23 11:04:40;;;;;;;98.75;35.25;;;12.90;63.20;;;;;;4961362;28;20496;-88
2022/12/23 11:07:09;;;;;;;100.47;39.33;;;12.90;63.00;;;;;;4977219;28;20030;-87
2022/12/23 11:09:42;;;;;;;143.02;51.22;;;12.80;63.50;;;;;;4977330;28;20517;-88
2022/12/23 11:12:10;;;;;;;111.40;40.88;;;12.60;64.50;;;;;;4977017;28;20402;-89
2022/12/23 11:14:51;;;;;;;107.68;38.10;;;12.80;64.00;;;;;;4977078;28;20022;-88
2022/12/23 11:17:24;;;;;;;;;;;13.10;63.30;;;;;;4977445;28;20027;-89
2022/12/23 11:20:09;;;;;;;83.95;32.72;;;13.10;62.60;;;;;;4977182;28;19909;-88
2022/12/23 11:22:34;;;;;;;98.47;35.88;;;13.00;63.00;;;;;;4977098;28;20042;-88
2022/12/23 11:25:35;;;;;;;122.47;39.40;;;12.80;63.30;;;;;;4994679;28;20034;-87
2022/12/23 11:28:10;;;;;;;95.93;35.60;;;12.40;64.50;;;;;;4963522;28;20038;-88
2022/12/23 11:30:54;;;;;;;93.45;36.90;;;12.40;64.70;;;;;;4977185;28;20038;-88
2022/12/23 11:33:27;;;;;;;112.95;40.53;;;12.70;64.10;;;;;;4976752;28;20046;-88
2022/12/23 11:36:22;;;;;;;92.38;35.40;;;12.60;64.50;;;;;;4976878;28;20044;-88
2022/12/23 11:38:59;;;;;;;105.90;37.22;;;12.90;63.60;;;;;;4976888;28;20027;-87
2022/12/23 11:41:53;;;;;;;110.82;38.92;;;13.00;63.50;;;;;;4976658;28;20030;-88
2022/12/23 11:44:22;;;;;;;118.60;40.33;;;12.90;62.90;;;;;;4976245;28;20030;-88
2022/12/23 11:46:48;;;;;;;107.80;37.60;;;12.80;64.80;;;;;;4976497;28;20054;-88
2022/12/23 11:49:30;;;;;;;118.72;39.60;;;13.10;63.70;;;;;;4976767;28;20481;-88
2022/12/23 11:52:04;;;;;;;137.57;40.53;;;13.40;62.80;;;;;;4976548;28;20484;-88
2022/12/23 12:11:25;;;;;;;130.50;41.53;;;13.20;63.60;;;;;;4988707;28;20049;-88
2022/12/23 12:14:00;;;;;;;113.93;40.10;;;13.20;63.70;;;;;;4980773;28;20030;-88
2022/12/23 12:16:26;;;;;;;109.03;39.95;;;13.00;63.50;;;;;;4996504;28;20040;-87
2022/12/23 12:18:54;;;;;;;124.93;45.35;;;12.50;64.70;;;;;;4980237;28;20442;-88
2022/12/23 12:21:27;;;;;;;114.38;44.45;;;12.50;65.10;;;;;;4996864;28;20045;-88
2022/12/23 12:23:59;;;;;;;174.00;55.78;;;12.70;64.20;;;;;;4997593;28;20021;-87
2022/12/23 12:26:35;;;;;;;134.07;47.97;;;12.40;66.20;;;;;;4980515;28;20077;-87
2022/12/23 12:29:31;;;;;;;139.05;53.17;;;12.50;66.00;;;;;;4996631;28;20022;-90
2022/12/23 12:31:59;;;;;;;139.18;51.13;;;12.70;65.00;;;;;;4979800;28;20077;-88
2022/12/23 12:34:27;;;;;;;118.30;50.42;;;12.90;64.90;;;;;;4996456;28;20027;-88
2022/12/23 12:37:21;;;;;;;121.50;44.13;;;12.90;64.80;;;;;;4980249;28;20022;-88
2022/12/23 12:39:55;;;;;;;125.95;41.55;;;13.00;64.10;;;;;;4980010;28;20033;-87
2022/12/23 12:42:46;;;;;;;119.82;42.90;;;12.70;64.30;;;;;;4989794;28;20485;-88
2022/12/23 12:45:18;;;;;;;144.43;48.38;;;12.70;65.10;;;;;;5004836;28;20429;-88
2022/12/23 12:47:44;;;;;;;124.07;44.28;;;12.70;65.50;;;;;;5015432;28;20041;-89
2022/12/23 12:50:28;;;;;;;150.13;52.03;;;12.90;64.70;;;;;;4999001;28;20140;-90
2022/12/23 12:52:58;;;;;;;127.75;46.47;;;12.70;65.80;;;;;;5015315;28;20045;-88
2022/12/23 12:55:54;;;;;;;148.75;47.47;;;12.80;65.70;;;;;;5015238;28;20045;-90
2022/12/23 13:09:35;;;;;;;141.45;45.50;;;12.90;65.20;;;;;;5041159;22;20049;-83
2022/12/23 13:12:32;;;;;;;159.82;44.47;;;13.30;64.20;;;;;;4956390;29;20046;-87
2022/12/23 13:15:07;;;;;;;116.32;42.97;;;13.80;62.60;;;;;;4953874;29;20081;-83
2022/12/23 13:17:42;;;;;;;141.23;45.00;;;13.90;62.00;;;;;;4983180;28;20023;-85
2022/12/23 13:20:19;;;;;;;193.32;50.70;;;13.80;62.20;;;;;;4956931;29;20366;-85
2022/12/23 13:22:49;;;;;;;130.30;43.42;;;13.90;62.20;;;;;;4985235;28;20393;-85
2022/12/23 13:25:23;;;;;;;138.07;45.10;;;14.00;61.80;;;;;;4957789;29;20027;-83
2022/12/23 13:27:57;;;;;;;162.40;44.72;;;14.10;62.00;;;;;;4953104;29;20023;-85
2022/12/23 13:30:25;;;;;;;132.77;44.03;;;14.20;62.20;;;;;;4950699;29;20162;-86
2022/12/23 13:33:14;;;;;;;135.20;42.00;;;14.20;61.50;;;;;;4957399;29;20023;-86
2022/12/23 13:36:01;;;;;;;136.18;41.17;;;14.10;61.70;;;;;;4984409;28;20019;-86
2022/12/23 13:38:55;;;;;;;133.00;40.42;;;14.10;61.60;;;;;;4931023;29;20063;-87
2022/12/23 13:41:38;;;;;;;157.27;42.38;;;14.10;61.70;;;;;;4937344;29;20034;-84
2022/12/23 13:44:08;;;;;;;146.63;42.03;;;14.10;61.50;;;;;;4970907;28;20016;-86
2022/12/23 13:46:51;;;;;;;124.07;41.60;;;14.10;61.30;;;;;;4955990;29;20382;-84
2022/12/23 13:49:35;;;;;;;126.93;39.25;;;14.10;61.40;;;;;;4960068;28;20261;-87
2022/12/23 13:52:10;;;;;;;139.68;42.45;;;14.20;61.40;;;;;;4976748;28;20023;-88
2022/12/23 13:55:05;;;;;;;144.20;42.35;;;14.30;61.40;;;;;;4959926;28;20500;-89
2022/12/23 13:57:55;;;;;;;126.03;40.40;;;14.30;61.80;;;;;;4960095;28;20040;-89
2022/12/23 14:00:27;;;;;;;128.00;42.15;;;14.20;61.30;;;;;;4959512;28;20461;-87
2022/12/23 14:03:18;;;;;;;106.68;38.50;;;14.20;61.40;;;;;;4959918;28;20030;-89
2022/12/23 14:05:51;;;;;;;115.93;41.38;;;13.80;62.30;;;;;;4942780;28;20031;-86
2022/12/23 14:08:17;;;;;;;113.38;38.20;;;13.90;62.50;;;;;;4955219;29;20163;-87
2022/12/23 14:11:11;;;;;;;111.95;40.30;;;13.90;62.10;;;;;;4958195;28;20106;-90
2022/12/23 14:13:48;;;;;;;115.80;40.80;;;13.80;62.60;;;;;;4962941;28;20105;-84
2022/12/23 14:16:38;;;;;;;157.30;48.08;;;13.80;62.40;;;;;;4971629;28;20377;-87
2022/12/23 14:19:50;;;;;;;207.98;66.50;;;13.60;63.30;;;;;;4977098;28;20023;-84
2022/12/23 14:22:44;;;;;;;202.82;62.92;;;13.80;62.90;;;;;;4938225;29;20035;-87
2022/12/23 14:25:48;;;;;;;121.07;43.03;;;14.00;62.10;;;;;;4954683;29;20402;-87
2022/12/23 14:28:44;;;;;;;138.85;45.42;;;14.10;62.20;;;;;;4935502;29;20130;-87
2022/12/23 14:31:34;;;;;;;171.82;57.17;;;14.10;62.10;;;;;;4938842;29;20035;-83
2022/12/23 14:34:27;;;;;;;249.13;88.32;;;14.00;62.00;;;;;;4935160;29;20038;-86
2022/12/23 14:37:28;;;;;;;240.25;85.50;;;14.00;62.10;;;;;;4919853;29;20030;-87
2022/12/23 14:39:54;;;;;;;304.25;58.25;;;14.10;61.90;;;;;;4935076;29;20075;-88
2022/12/23 14:42:40;;;;;;;273.92;76.50;;;14.20;61.40;;;;;;4938336;29;20059;-87
2022/12/23 14:45:35;;;;;;;186.85;55.47;;;14.30;61.00;;;;;;4938885;29;20038;-87
2022/12/23 14:48:22;;;;;;;158.18;49.33;;;14.30;60.60;;;;;;4936121;29;20027;-85
2022/12/23 14:51:19;;;;;;;242.00;56.45;;;14.30;61.30;;;;;;4938505;29;20027;-85
2022/12/23 14:53:55;;;;;;;253.20;61.00;;;14.10;61.50;;;;;;4938333;29;20035;-86
2022/12/23 14:56:37;;;;;;;180.50;60.30;;;14.20;61.50;;;;;;4955075;29;20385;-86
2022/12/23 14:59:29;;;;;;;204.60;58.75;;;14.30;60.90;;;;;;4630839;28;9999680;-85